Time;durP1;ratioP1;P1;durP2;ratioP2;P2;SDS_P1;SDS_P2;PMS_P1;PMS_P2;Temp;Humidity;BMP_temperature;BMP_pressure;BME280_temperature;BME280_humidity;BME280_pressure;Samples;Min_cycle;Max_cycle;Signal;HPM_P1;HPM_P2
2024/04/16 00:02:58;;;;;;;1.70;1.08;;;;;;;7.20;100.00;99626.56;6731574;26;19991;-78
2024/04/16 00:06:01;;;;;;;4.30;1.70;;;;;;;7.10;100.00;99618.41;6731806;26;20277;-79
2024/04/16 00:09:04;;;;;;;5.50;1.45;;;;;;;7.09;100.00;99620.19;6732084;26;20006;-79
2024/04/16 00:12:05;;;;;;;3.28;1.63;;;;;;;7.11;100.00;99618.31;6731657;26;20086;-77
2024/04/16 00:15:11;;;;;;;2.38;1.05;;;;;;;7.20;100.00;99618.72;6731494;26;20432;-78
2024/04/16 00:18:11;;;;;;;3.80;1.42;;;;;;;7.18;100.00;99610.16;6731404;26;19995;-78
2024/04/16 00:21:14;;;;;;;2.25;1.13;;;;;;;7.15;100.00;99597.25;6730937;26;20007;-82
2024/04/16 00:24:15;;;;;;;1.52;0.90;;;;;;;7.31;100.00;99604.13;6731358;26;20367;-78
2024/04/16 00:27:18;;;;;;;2.70;1.20;;;;;;;7.20;100.00;99611.72;6731322;26;20000;-78
2024/04/16 00:30:21;;;;;;;9.82;2.03;;;;;;;7.17;100.00;99600.59;6731705;26;19996;-80
2024/04/16 00:33:24;;;;;;;4.25;1.42;;;;;;;7.22;100.00;99593.34;6730882;26;19996;-78
2024/04/16 00:36:25;;;;;;;1.98;1.05;;;;;;;7.26;100.00;99590.47;6731313;26;20512;-78
2024/04/16 00:39:28;;;;;;;1.55;1.23;;;;;;;7.10;100.00;99584.47;6730768;26;20064;-78
2024/04/16 00:42:28;;;;;;;6.13;0.90;;;;;;;7.17;100.00;99582.31;6730981;26;19991;-78
2024/04/16 00:45:34;;;;;;;2.75;1.40;;;;;;;7.24;100.00;99591.50;6731115;26;20387;-79
2024/04/16 00:48:35;;;;;;;1.77;1.08;;;;;;;7.21;100.00;99602.94;6731050;26;19995;-75
2024/04/16 00:51:39;;;;;;;7.78;1.02;;;;;;;7.27;100.00;99571.25;6731112;26;19999;-76
2024/04/16 00:54:42;;;;;;;1.27;0.80;;;;;;;7.17;100.00;99567.47;6729885;26;19995;-79
2024/04/16 00:57:45;;;;;;;7.78;1.20;;;;;;;7.34;100.00;99575.19;6730306;26;19999;-78
2024/04/16 01:00:48;;;;;;;1.48;0.93;;;;;;;7.37;100.00;99587.25;6730701;26;19996;-77
2024/04/16 01:03:53;;;;;;;0.90;0.65;;;;;;;7.33;100.00;99573.50;6730596;26;19999;-79
2024/04/16 01:06:54;;;;;;;3.03;1.08;;;;;;;7.27;100.00;99583.50;6730810;26;20007;-78
2024/04/16 01:09:57;;;;;;;1.30;0.73;;;;;;;7.21;100.00;99582.06;6730682;26;19995;-76
2024/04/16 01:12:57;;;;;;;6.25;0.95;;;;;;;7.10;100.00;99585.28;6730277;26;19991;-77
2024/04/16 01:16:03;;;;;;;2.28;1.00;;;;;;;6.94;100.00;99579.25;6730318;26;19999;-76
2024/04/16 01:19:08;;;;;;;2.55;0.90;;;;;;;6.89;100.00;99565.63;6730379;26;20038;-77
2024/04/16 01:22:10;;;;;;;3.97;1.25;;;;;;;6.78;100.00;99568.03;6730009;26;20091;-77
2024/04/16 01:25:15;;;;;;;1.48;0.90;;;;;;;6.77;100.00;99556.75;6730092;26;20010;-76
2024/04/16 01:28:16;;;;;;;2.45;1.00;;;;;;;6.79;100.00;99560.09;6730195;26;20006;-76
2024/04/16 01:31:19;;;;;;;1.23;0.82;;;;;;;6.71;100.00;99551.00;6729946;26;20277;-75
2024/04/16 01:34:19;;;;;;;0.40;0.40;;;;;;;6.69;100.00;99565.94;6730102;26;19996;-74
2024/04/16 01:37:22;;;;;;;2.40;0.70;;;;;;;6.54;100.00;99573.69;6729736;26;20045;-78
2024/04/16 01:40:25;;;;;;;1.25;0.60;;;;;;;6.47;100.00;99555.84;6730004;26;20367;-76
2024/04/16 01:43:28;;;;;;;0.60;0.60;;;;;;;6.48;100.00;99550.53;6729595;26;19995;-77
2024/04/16 01:46:29;;;;;;;0.75;0.55;;;;;;;6.44;100.00;99551.63;6729934;26;20321;-76
2024/04/16 01:49:32;;;;;;;1.20;0.57;;;;;;;6.46;100.00;99568.06;6729598;26;19996;-78
2024/04/16 01:52:32;;;;;;;1.75;0.45;;;;;;;6.46;100.00;99573.25;6729521;26;20253;-78
2024/04/16 01:55:38;;;;;;;2.55;0.85;;;;;;;6.48;100.00;99557.50;6729582;26;20065;-75
2024/04/16 01:58:39;;;;;;;3.58;0.70;;;;;;;6.37;100.00;99558.13;6730565;26;19995;-78
2024/04/16 02:01:42;;;;;;;1.95;0.60;;;;;;;6.45;100.00;99542.88;6730433;26;20027;-75
2024/04/16 02:04:42;;;;;;;5.97;1.05;;;;;;;6.47;100.00;99543.63;6733733;26;19996;-76
2024/04/16 02:07:45;;;;;;;4.05;0.95;;;;;;;6.47;100.00;99548.00;6734413;26;19999;-75
2024/04/16 02:10:53;;;;;;;6.90;1.23;;;;;;;6.52;100.00;99548.59;6733632;26;20040;-76
2024/04/16 02:13:56;;;;;;;0.70;0.70;;;;;;;6.56;100.00;99537.06;6733642;26;20000;-76
2024/04/16 02:16:57;;;;;;;1.55;0.70;;;;;;;6.35;100.00;99552.13;6733612;26;20056;-77
2024/04/16 02:20:00;;;;;;;4.13;1.02;;;;;;;6.37;100.00;99539.03;6742708;26;20002;-77
2024/04/16 02:23:00;;;;;;;1.35;0.82;;;;;;;6.31;100.00;99527.13;6758636;26;20000;-75
2024/04/16 02:26:06;;;;;;;3.92;0.88;;;;;;;6.37;100.00;99539.84;6733244;26;20003;-75
2024/04/16 02:29:06;;;;;;;1.10;0.85;;;;;;;6.44;100.00;99532.50;6733361;26;20074;-75
2024/04/16 02:32:09;;;;;;;5.80;1.30;;;;;;;6.27;100.00;99526.47;6732623;26;20015;-77
2024/04/16 02:35:10;;;;;;;2.67;0.77;;;;;;;6.20;100.00;99532.94;6747609;26;20375;-75
2024/04/16 02:38:13;;;;;;;0.90;0.70;;;;;;;6.26;100.00;99536.97;6746274;26;20078;-75
2024/04/16 02:41:16;;;;;;;4.65;1.38;;;;;;;6.15;100.00;99537.56;6750288;26;20246;-75
2024/04/16 02:44:19;;;;;;;1.25;0.75;;;;;;;5.99;100.00;99542.78;6754577;26;20015;-76
2024/04/16 02:47:19;;;;;;;1.20;1.10;;;;;;;6.03;100.00;99533.84;6748928;26;20375;-73
2024/04/16 02:50:22;;;;;;;2.10;0.98;;;;;;;6.06;100.00;99536.31;6734661;26;20011;-74
2024/04/16 02:53:23;;;;;;;1.67;1.00;;;;;;;6.07;100.00;99550.19;6744513;26;19996;-74
2024/04/16 02:56:28;;;;;;;3.45;1.33;;;;;;;6.14;100.00;99548.09;6750745;26;20057;-77
2024/04/16 02:59:29;;;;;;;1.77;1.20;;;;;;;6.00;100.00;99533.22;6777565;26;20055;-75
2024/04/16 03:02:32;;;;;;;7.03;1.10;;;;;;;6.02;100.00;99523.53;6736462;26;20008;-75
2024/04/16 03:05:35;;;;;;;3.00;1.30;;;;;;;6.01;100.00;99525.28;6751976;26;20051;-74
2024/04/16 03:08:38;;;;;;;4.00;1.60;;;;;;;6.01;100.00;99524.44;6748928;26;20241;-75
2024/04/16 03:11:41;;;;;;;3.95;1.25;;;;;;;6.10;100.00;99518.72;6750888;26;20049;-74
2024/04/16 03:14:44;;;;;;;4.30;1.65;;;;;;;6.17;100.00;99520.06;6754871;26;19999;-74
2024/04/16 03:17:44;;;;;;;2.08;1.55;;;;;;;6.14;100.00;99524.63;6768431;26;20380;-75
2024/04/16 03:20:47;;;;;;;4.13;1.83;;;;;;;6.29;100.00;99519.41;6755688;26;20063;-75
2024/04/16 03:23:51;;;;;;;1.83;1.38;;;;;;;6.21;100.00;99512.91;6776973;26;19995;-76
2024/04/16 03:26:56;;;;;;;3.67;1.98;;;;;;;6.29;100.00;99508.97;6777182;26;20086;-74
2024/04/16 03:29:57;;;;;;;9.40;2.00;;;;;;;6.27;100.00;99508.22;6777383;26;19999;-75
2024/04/16 03:33:00;;;;;;;4.97;2.17;;;;;;;6.28;100.00;99514.28;6776787;26;20059;-74
2024/04/16 03:36:00;;;;;;;3.53;2.03;;;;;;;6.29;100.00;99508.97;6776597;26;19991;-75
2024/04/16 03:39:03;;;;;;;4.78;1.85;;;;;;;6.27;100.00;99529.09;6760473;26;20086;-76
2024/04/16 03:42:09;;;;;;;3.67;1.52;;;;;;;6.19;100.00;99517.41;6776451;26;20051;-75
2024/04/16 03:45:12;;;;;;;4.75;1.83;;;;;;;6.29;100.00;99519.41;6776941;26;20006;-75
2024/04/16 03:48:12;;;;;;;1.40;1.08;;;;;;;6.35;100.00;99515.59;6776515;26;19986;-75
2024/04/16 03:51:15;;;;;;;3.15;1.27;;;;;;;6.37;100.00;99516.38;6762553;26;20023;-78
2024/04/16 03:54:18;;;;;;;3.20;1.65;;;;;;;6.31;100.00;99507.13;6750425;26;20064;-78
2024/04/16 03:57:21;;;;;;;2.33;1.30;;;;;;;6.39;100.00;99511.06;6776433;26;19991;-78
2024/04/16 04:03:43;;;;;;;2.20;1.55;;;;;;;6.28;100.00;99503.84;6779473;26;20372;-78
2024/04/16 04:06:46;;;;;;;2.03;1.23;;;;;;;6.27;100.00;99497.78;6775957;26;19995;-77
2024/04/16 04:09:47;;;;;;;1.55;0.93;;;;;;;6.27;100.00;99500.38;6770499;26;20372;-78
2024/04/16 04:12:53;;;;;;;2.38;1.25;;;;;;;6.31;100.00;99493.22;6754930;26;20002;-79
2024/04/16 04:15:56;;;;;;;5.32;1.35;;;;;;;6.49;100.00;99505.22;6756115;26;20006;-78
2024/04/16 04:18:59;;;;;;;5.68;1.40;;;;;;;6.38;100.00;99489.34;6753396;26;20279;-78
2024/04/16 04:21:59;;;;;;;4.80;1.65;;;;;;;6.44;100.00;99504.66;6765563;26;20255;-77
2024/04/16 04:25:02;;;;;;;3.75;2.00;;;;;;;6.49;100.00;99499.16;6776158;26;20008;-77
2024/04/16 04:28:05;;;;;;;3.85;1.30;;;;;;;6.52;100.00;99499.84;6774571;26;20059;-78
2024/04/16 04:31:19;;;;;;;4.22;1.60;;;;;;;6.51;100.00;99503.38;6776026;26;19995;-78
2024/04/16 04:34:19;;;;;;;2.47;1.40;;;;;;;6.58;100.00;99499.47;6776311;26;20002;-78
2024/04/16 04:37:22;;;;;;;8.48;3.00;;;;;;;6.53;100.00;99495.47;6775869;26;19998;-78
2024/04/16 04:40:23;;;;;;;4.45;2.58;;;;;;;6.66;100.00;99503.44;6776239;26;20035;-78
2024/04/16 04:43:28;;;;;;;8.60;2.30;;;;;;;6.68;100.00;99506.81;6775298;26;19995;-79
2024/04/16 04:46:30;;;;;;;8.55;2.95;;;;;;;6.70;100.00;99504.94;6776247;26;20439;-79
2024/04/16 04:49:33;;;;;;;6.18;3.17;;;;;;;6.71;100.00;99504.84;6775642;26;19998;-79
2024/04/16 04:52:33;;;;;;;11.25;4.03;;;;;;;6.73;100.00;99505.63;6775412;26;20063;-78
2024/04/16 04:55:36;;;;;;;12.02;4.22;;;;;;;6.77;100.00;99512.34;6775397;26;19995;-79
2024/04/16 04:58:39;;;;;;;10.82;3.70;;;;;;;6.74;100.00;99506.47;6775293;26;20030;-80
2024/04/16 05:01:42;;;;;;;14.20;4.38;;;;;;;6.76;100.00;99510.66;6756974;26;20395;-78
2024/04/16 05:04:43;;;;;;;10.35;4.13;;;;;;;6.82;100.00;99501.63;6731169;26;20260;-80
2024/04/16 05:07:46;;;;;;;12.45;6.13;;;;;;;6.88;100.00;99510.88;6730454;26;19995;-79
2024/04/16 05:10:49;;;;;;;14.90;5.53;;;;;;;6.88;100.00;99518.72;6730597;26;19991;-79
2024/04/16 05:13:55;;;;;;;11.95;5.05;;;;;;;6.91;100.00;99503.72;6730579;26;20002;-78
2024/04/16 05:16:55;;;;;;;14.77;5.38;;;;;;;6.85;100.00;99504.06;6730769;26;20056;-80
2024/04/16 05:19:58;;;;;;;11.05;5.68;;;;;;;6.98;100.00;99510.25;6730732;26;19995;-78
2024/04/16 05:22:59;;;;;;;12.50;5.90;;;;;;;7.04;100.00;99511.66;6730463;26;20000;-80
2024/04/16 05:26:02;;;;;;;9.15;5.72;;;;;;;7.02;100.00;99506.53;6730185;26;19996;-79
2024/04/16 05:29:05;;;;;;;19.88;5.72;;;;;;;6.94;100.00;99497.47;6730705;26;20441;-79
2024/04/16 05:32:11;;;;;;;14.05;5.22;;;;;;;7.01;100.00;99499.63;6730675;26;19995;-79
2024/04/16 05:35:11;;;;;;;13.57;7.03;;;;;;;6.96;100.00;99517.34;6732034;26;19999;-80
2024/04/16 05:38:14;;;;;;;9.25;5.60;;;;;;;6.97;100.00;99507.72;6731357;26;19998;-79
2024/04/16 05:41:15;;;;;;;11.73;5.05;;;;;;;7.05;100.00;99514.19;6730179;26;19991;-79
2024/04/16 05:44:21;;;;;;;8.13;5.13;;;;;;;7.04;100.00;99517.75;6745967;26;20447;-79
2024/04/16 05:47:24;;;;;;;8.35;5.03;;;;;;;7.05;100.00;99511.59;6774508;26;19991;-79
2024/04/16 05:50:24;;;;;;;11.10;5.30;;;;;;;7.10;100.00;99514.75;6774866;26;20006;-78
2024/04/16 05:53:27;;;;;;;10.40;5.45;;;;;;;6.98;100.00;99522.47;6754572;26;20388;-79
2024/04/16 05:56:28;;;;;;;6.63;4.53;;;;;;;6.94;100.00;99527.03;6732720;26;19995;-79
2024/04/16 05:59:33;;;;;;;10.77;5.25;;;;;;;7.08;100.00;99519.22;6744659;26;20451;-80
2024/04/16 06:02:36;;;;;;;8.88;4.60;;;;;;;7.21;100.00;99521.97;6729340;26;20085;-78
2024/04/16 06:05:37;;;;;;;21.60;5.75;;;;;;;7.17;100.00;99517.00;6729550;26;20056;-78
2024/04/16 06:08:40;;;;;;;13.82;5.47;;;;;;;7.17;100.00;99519.63;6743998;26;20292;-79
2024/04/16 06:11:40;;;;;;;8.27;4.80;;;;;;;7.27;100.00;99524.22;6765551;26;20375;-79
2024/04/16 06:14:46;;;;;;;13.48;4.93;;;;;;;7.33;100.00;99529.06;6774006;26;20003;-80
2024/04/16 06:17:46;;;;;;;6.63;4.85;;;;;;;7.45;100.00;99530.13;6775156;26;19999;-79
2024/04/16 06:20:49;;;;;;;13.55;5.30;;;;;;;7.36;100.00;99541.97;6774444;26;19999;-79
2024/04/16 06:23:50;;;;;;;7.45;4.22;;;;;;;7.26;100.00;99534.75;6774068;26;19999;-79
2024/04/16 06:26:53;;;;;;;10.00;4.13;;;;;;;7.39;100.00;99540.94;6762178;26;20011;-77
2024/04/16 06:29:56;;;;;;;14.40;3.92;;;;;;;7.41;100.00;99552.16;6746212;26;20325;-79
2024/04/16 06:32:59;;;;;;;5.95;4.10;;;;;;;7.30;100.00;99541.47;6769947;26;20014;-78
2024/04/16 06:35:59;;;;;;;9.23;3.65;;;;;;;7.33;100.00;99538.69;6773662;26;20003;-79
2024/04/16 06:39:02;;;;;;;9.77;4.13;;;;;;;7.37;100.00;99535.81;6773646;26;20060;-78
2024/04/16 06:42:03;;;;;;;7.03;3.92;;;;;;;7.42;100.00;99539.91;6773201;26;19995;-81
2024/04/16 06:45:10;;;;;;;5.70;3.53;;;;;;;7.45;100.00;99540.59;6773232;26;20056;-81
2024/04/16 06:48:13;;;;;;;5.93;3.50;;;;;;;7.54;100.00;99542.66;6772919;26;19998;-79
2024/04/16 06:51:16;;;;;;;5.85;2.97;;;;;;;7.61;100.00;99546.56;6774436;26;20055;-79
2024/04/16 06:54:19;;;;;;;6.78;3.45;;;;;;;7.69;100.00;99545.25;6743554;26;20064;-80
2024/04/16 06:57:19;;;;;;;5.75;3.20;;;;;;;7.67;100.00;99540.09;6733163;26;20072;-78
2024/04/16 07:00:25;;;;;;;5.07;3.40;;;;;;;7.74;100.00;99549.28;6753418;26;20004;-80
2024/04/16 07:03:28;;;;;;;4.70;3.08;;;;;;;7.79;100.00;99546.38;6744811;26;19999;-79
2024/04/16 07:06:31;;;;;;;6.50;3.20;;;;;;;7.86;100.00;99552.94;6732673;26;19992;-79
2024/04/16 07:09:31;;;;;;;7.03;3.20;;;;;;;7.79;100.00;99541.97;6732908;26;19996;-79
2024/04/16 07:12:34;;;;;;;3.88;2.63;;;;;;;7.81;100.00;99542.75;6732518;26;19996;-79
2024/04/16 07:15:37;;;;;;;4.15;3.10;;;;;;;7.78;100.00;99542.94;6732608;26;20066;-79
2024/04/16 07:18:40;;;;;;;6.40;3.58;;;;;;;7.85;100.00;99536.38;6733283;26;20000;-79
2024/04/16 07:21:41;;;;;;;4.80;2.83;;;;;;;8.07;100.00;99548.97;6733132;26;20052;-79
2024/04/16 07:24:45;;;;;;;4.38;3.10;;;;;;;8.14;100.00;99538.97;6732609;26;19999;-80
2024/04/16 07:27:48;;;;;;;3.60;2.60;;;;;;;8.14;100.00;99533.75;6732955;26;20415;-79
2024/04/16 07:30:51;;;;;;;2.25;2.00;;;;;;;8.19;100.00;99525.59;6732240;26;19995;-78
2024/04/16 07:33:54;;;;;;;4.32;2.35;;;;;;;8.22;100.00;99534.09;6747650;26;20004;-79
2024/04/16 07:36:54;;;;;;;3.50;2.08;;;;;;;8.27;100.00;99537.28;6776891;26;20051;-80
2024/04/16 07:39:57;;;;;;;5.28;2.33;;;;;;;8.34;100.00;99533.31;6756430;26;20011;-79
2024/04/16 07:43:00;;;;;;;3.58;2.50;;;;;;;8.45;100.00;99532.66;6772349;26;20358;-78
2024/04/16 07:46:03;;;;;;;5.88;2.00;;;;;;;8.50;100.00;99535.00;6776711;26;19991;-79
2024/04/16 07:49:06;;;;;;;4.25;2.30;;;;;;;8.40;100.00;99537.34;6777288;26;20059;-79
2024/04/16 07:52:07;;;;;;;2.85;2.15;;;;;;;8.37;100.00;99540.16;6776256;26;20032;-78
2024/04/16 07:55:10;;;;;;;3.90;2.75;;;;;;;8.45;100.00;99534.41;6770591;26;19999;-80
2024/04/16 07:58:10;;;;;;;3.85;2.55;;;;;;;8.50;100.00;99541.06;6755187;26;19995;-79
2024/04/16 08:01:17;;;;;;;3.42;1.90;;;;;;;8.53;100.00;99551.31;6762911;26;20059;-83
2024/04/16 08:04:17;;;;;;;6.82;3.15;;;;;;;8.62;100.00;99536.81;6732088;26;19991;-80
2024/04/16 08:07:20;;;;;;;3.92;2.67;;;;;;;8.76;100.00;99541.97;6731960;26;20011;-81
2024/04/16 08:10:21;;;;;;;5.65;2.90;;;;;;;8.94;100.00;99539.94;6751985;26;20039;-79
2024/04/16 08:13:24;;;;;;;5.13;2.85;;;;;;;9.02;100.00;99544.69;6763461;26;19998;-81
2024/04/16 08:16:27;;;;;;;4.65;2.67;;;;;;;9.28;100.00;99545.56;6776368;26;20040;-80
2024/04/16 08:19:30;;;;;;;6.03;3.17;;;;;;;9.33;100.00;99546.09;6776822;26;20002;-80
2024/04/16 08:22:30;;;;;;;5.38;2.40;;;;;;;9.47;100.00;99543.38;6776178;26;19995;-81
2024/04/16 08:25:33;;;;;;;5.45;2.70;;;;;;;9.31;100.00;99559.31;6766673;26;19999;-81
2024/04/16 08:28:34;;;;;;;3.92;2.75;;;;;;;9.34;100.00;99548.59;6746701;26;19995;-79
2024/04/16 08:31:39;;;;;;;6.47;2.80;;;;;;;9.47;100.00;99551.25;6736364;26;20004;-80
2024/04/16 08:34:40;;;;;;;7.28;2.97;;;;;;;9.53;100.00;99550.81;6759260;26;20056;-78
2024/04/16 08:37:43;;;;;;;6.53;3.05;;;;;;;9.68;100.00;99551.56;6749743;26;20253;-79
2024/04/16 08:40:45;;;;;;;5.47;3.13;;;;;;;9.74;100.00;99553.75;6751113;26;19999;-81
2024/04/16 08:43:50;;;;;;;5.30;3.38;;;;;;;9.66;100.00;99566.56;6745215;26;20020;-80
2024/04/16 08:46:58;;;;;;;5.05;2.58;;;;;;;9.44;100.00;99564.56;6745355;26;19998;-78
2024/04/16 08:50:02;;;;;;;4.53;3.25;;;;;;;9.37;100.00;99564.16;6745864;26;19999;-79
2024/04/16 08:53:03;;;;;;;4.35;2.70;;;;;;;9.29;100.00;99568.22;6734084;26;20000;-79
2024/04/16 08:56:07;;;;;;;3.83;2.80;;;;;;;9.32;100.00;99574.09;6742144;26;20046;-79
2024/04/16 08:59:08;;;;;;;3.40;2.55;;;;;;;9.40;100.00;99577.06;6747655;26;20015;-74
2024/04/16 09:02:14;;;;;;;7.30;2.95;;;;;;;9.59;100.00;99574.03;6733466;26;20039;-71
2024/04/16 09:05:17;;;;;;;14.00;3.00;;;;;;;9.62;100.00;99575.59;6751772;26;20013;-81
2024/04/16 09:08:20;;;;;;;4.13;2.70;;;;;;;9.64;100.00;99576.34;6731163;26;20003;-81
2024/04/16 09:11:23;;;;;;;4.65;3.15;;;;;;;9.66;100.00;99584.91;6730550;26;19995;-81
2024/04/16 09:14:26;;;;;;;5.90;3.20;;;;;;;9.58;100.00;99582.84;6742778;26;20000;-81
2024/04/16 09:17:30;;;;;;;6.93;3.30;;;;;;;9.56;100.00;99583.88;6749214;26;20097;-79
2024/04/16 09:20:33;;;;;;;8.15;2.90;;;;;;;9.81;100.00;99576.03;6775098;26;19998;-80
2024/04/16 09:23:33;;;;;;;4.53;2.28;;;;;;;9.99;100.00;99586.16;6762527;26;19999;-81
2024/04/16 09:26:36;;;;;;;3.83;2.38;;;;;;;10.01;100.00;99594.78;6764192;26;20067;-77
2024/04/16 09:29:40;;;;;;;4.28;2.92;;;;;;;9.96;100.00;99599.53;6774610;26;20080;-79
2024/04/16 09:32:44;;;;;;;7.35;2.92;;;;;;;9.89;100.00;99607.78;6768174;26;20072;-81
2024/04/16 09:35:48;;;;;;;8.73;2.97;;;;;;;9.89;100.00;99604.34;6745165;26;20036;-79
2024/04/16 09:38:48;;;;;;;4.75;2.75;;;;;;;9.72;100.00;99602.03;6741481;26;20093;-81
2024/04/16 09:41:53;;;;;;;7.00;2.38;;;;;;;9.95;100.00;99605.69;6740535;26;20286;-80
2024/04/16 09:44:56;;;;;;;4.22;2.60;;;;;;;10.11;100.00;99606.31;6761008;26;20112;-83
2024/04/16 09:48:02;;;;;;;7.18;2.40;;;;;;;10.28;100.00;99606.00;6769698;26;20006;-83
2024/04/16 09:51:05;;;;;;;6.05;2.15;;;;;;;10.36;100.00;99603.69;6756033;26;20007;-82
2024/04/16 09:54:09;;;;;;;5.00;2.22;;;;;;;10.36;100.00;99613.38;6811192;21;20005;-80
2024/04/16 09:57:13;;;;;;;5.15;2.42;;;;;;;10.43;100.00;99616.38;6812937;26;20064;-80
2024/04/16 10:00:15;;;;;;;2.53;1.90;;;;;;;10.58;100.00;99608.25;6818591;26;20267;-80
2024/04/16 10:03:21;;;;;;;4.18;1.85;;;;;;;10.61;100.00;99610.66;6817892;26;20090;-80
2024/04/16 10:06:21;;;;;;;4.00;1.67;;;;;;;10.79;99.72;99619.00;6776137;26;20085;-80
2024/04/16 10:09:24;;;;;;;1.58;1.20;;;;;;;10.69;95.75;99618.00;6811003;26;20002;-80
2024/04/16 10:12:26;;;;;;;1.73;1.23;;;;;;;10.76;95.62;99616.59;6814777;26;20010;-80
2024/04/16 10:15:30;;;;;;;2.08;1.10;;;;;;;10.85;98.16;99620.34;6811451;26;20378;-80
2024/04/16 10:18:34;;;;;;;2.30;1.15;;;;;;;11.04;95.00;99625.97;6809797;26;20098;-80
2024/04/16 10:21:41;;;;;;;1.70;1.00;;;;;;;10.65;90.06;99622.63;6790953;26;20013;-80
2024/04/16 10:24:50;;;;;;;2.22;1.13;;;;;;;10.51;91.65;99625.41;6795955;26;19998;-80
2024/04/16 10:27:53;;;;;;;5.28;1.38;;;;;;;10.41;92.87;99629.63;6821140;26;19999;-80
2024/04/16 10:30:59;;;;;;;1.35;1.13;;;;;;;10.47;91.92;99630.97;6811691;26;20010;-81
2024/04/16 10:34:05;;;;;;;2.00;1.05;;;;;;;10.34;93.29;99628.38;6810092;26;20007;-79
2024/04/16 10:37:05;;;;;;;1.48;0.93;;;;;;;10.43;92.50;99638.22;6805821;26;20020;-80
2024/04/16 10:40:09;;;;;;;1.13;0.82;;;;;;;10.50;90.55;99634.22;6822053;26;20006;-80
2024/04/16 10:43:12;;;;;;;0.90;0.55;;;;;;;10.77;87.83;99634.06;6815726;26;20370;-80
2024/04/16 10:46:13;;;;;;;2.90;0.80;;;;;;;10.93;87.40;99637.22;6811620;26;20247;-80
2024/04/16 10:49:22;;;;;;;1.40;0.90;;;;;;;11.00;85.28;99642.06;6808798;26;20006;-80
2024/04/16 10:52:25;;;;;;;1.27;0.75;;;;;;;10.89;91.05;99646.28;6806592;26;20382;-80
2024/04/16 10:55:25;;;;;;;2.72;1.63;;;;;;;10.74;92.22;99647.41;6815753;26;20055;-82
2024/04/16 10:58:29;;;;;;;1.27;0.85;;;;;;;10.96;90.57;99654.59;6810525;26;20068;-83
2024/04/16 11:01:29;;;;;;;3.95;0.80;;;;;;;11.07;89.55;99654.63;6805510;26;20065;-81
2024/04/16 11:04:35;;;;;;;2.15;0.80;;;;;;;10.98;90.46;99662.34;6816111;26;20006;-80
2024/04/16 11:07:36;;;;;;;0.90;0.65;;;;;;;11.02;86.60;99659.38;6822265;26;20039;-81
2024/04/16 11:10:49;;;;;;;0.68;0.65;;;;;;;11.23;84.09;99661.41;6820192;26;20002;-83
2024/04/16 11:13:53;;;;;;;3.00;1.42;;;;;;;11.35;84.35;99671.00;6822219;26;20195;-82
2024/04/16 11:16:57;;;;;;;1.13;0.90;;;;;;;11.40;84.82;99672.38;6813287;26;20002;-83
2024/04/16 11:20:00;;;;;;;1.63;1.00;;;;;;;11.73;87.26;99675.25;6822062;26;20054;-82
2024/04/16 11:23:04;;;;;;;3.60;0.95;;;;;;;11.96;88.14;99682.25;6822131;26;20370;-81
2024/04/16 11:26:07;;;;;;;2.22;0.82;;;;;;;12.01;86.50;99681.91;6822242;26;20382;-80
2024/04/16 11:29:08;;;;;;;1.70;0.98;;;;;;;12.20;88.08;99682.16;6822281;26;20002;-80
2024/04/16 11:32:11;;;;;;;2.90;0.80;;;;;;;12.52;80.77;99689.38;6822179;26;20063;-79
2024/04/16 11:35:15;;;;;;;1.75;0.90;;;;;;;12.34;78.01;99691.63;6822362;26;20001;-80
2024/04/16 11:38:20;;;;;;;1.50;0.82;;;;;;;12.30;82.69;99688.38;6819948;26;20039;-80
2024/04/16 11:41:21;;;;;;;0.77;0.63;;;;;;;12.67;76.68;99698.69;6809147;26;20087;-81
2024/04/16 11:44:24;;;;;;;3.08;0.90;;;;;;;12.71;72.93;99700.13;6822360;26;20002;-80
2024/04/16 11:47:27;;;;;;;2.22;0.57;;;;;;;12.50;71.31;99701.84;6821914;26;20239;-80
2024/04/16 11:50:31;;;;;;;0.70;0.65;;;;;;;12.24;75.01;99706.47;6819914;26;20390;-81
2024/04/16 11:53:34;;;;;;;2.05;0.77;;;;;;;11.92;74.99;99700.06;6821353;26;20010;-80
2024/04/16 11:56:37;;;;;;;1.17;0.90;;;;;;;12.18;76.65;99719.16;6821633;26;20006;-78
2024/04/16 11:59:40;;;;;;;0.50;0.50;;;;;;;12.02;77.21;99723.06;6821548;26;20046;-80
2024/04/16 12:02:40;;;;;;;3.05;0.80;;;;;;;12.08;74.58;99741.03;6820962;26;20416;-80
2024/04/16 12:05:46;;;;;;;2.40;0.80;;;;;;;12.03;73.25;99727.38;6819674;26;19998;-80
2024/04/16 12:08:49;;;;;;;0.70;0.70;;;;;;;11.82;73.87;99727.19;6820004;26;20407;-81
2024/04/16 12:11:50;;;;;;;3.60;0.68;;;;;;;11.70;75.26;99731.56;6820085;26;20326;-82
2024/04/16 12:14:53;;;;;;;2.55;0.75;;;;;;;12.27;82.33;99738.69;6820877;26;20043;-80
2024/04/16 12:17:53;;;;;;;1.30;0.80;;;;;;;13.08;70.96;99742.91;6821376;26;20010;-79
2024/04/16 12:20:59;;;;;;;2.30;0.90;;;;;;;13.42;69.90;99745.47;6821552;26;20001;-79
2024/04/16 12:24:02;;;;;;;2.30;1.23;;;;;;;13.64;68.59;99745.41;6821346;26;20190;-79
2024/04/16 12:27:03;;;;;;;0.60;0.60;;;;;;;13.56;66.39;99753.09;6820913;26;20079;-79
2024/04/16 12:30:07;;;;;;;0.75;0.70;;;;;;;13.15;67.18;99753.78;6817610;26;20002;-79
2024/04/16 12:33:07;;;;;;;1.27;0.93;;;;;;;12.61;67.18;99760.63;6814677;26;20675;-79
2024/04/16 12:36:14;;;;;;;1.52;0.88;;;;;;;12.33;70.56;99767.19;6800317;26;20011;-79
2024/04/16 12:39:14;;;;;;;1.08;0.90;;;;;;;12.04;73.71;99765.94;6818729;26;20013;-79
2024/04/16 12:42:17;;;;;;;1.73;1.15;;;;;;;11.92;75.47;99767.69;6819088;26;20394;-78
2024/04/16 12:45:18;;;;;;;2.83;1.67;;;;;;;12.01;75.89;99779.34;6818282;26;20037;-81
2024/04/16 12:48:22;;;;;;;1.55;1.30;;;;;;;11.99;79.93;99778.59;6819231;26;20002;-81
2024/04/16 12:51:25;;;;;;;3.05;1.30;;;;;;;12.26;82.29;99788.84;6821019;26;19998;-81
2024/04/16 12:54:28;;;;;;;2.25;1.20;;;;;;;12.50;79.18;99789.63;6820821;26;20004;-80
2024/04/16 12:57:28;;;;;;;2.97;1.40;;;;;;;12.87;77.72;99800.81;6815774;26;20009;-80
2024/04/16 13:00:31;;;;;;;6.55;1.50;;;;;;;12.35;82.10;99806.59;6818861;26;20051;-80
2024/04/16 13:03:32;;;;;;;2.20;1.63;;;;;;;12.35;85.61;99802.19;6815393;26;20107;-80
2024/04/16 13:06:38;;;;;;;2.15;1.77;;;;;;;13.10;84.41;99803.44;6816193;26;20007;-78
2024/04/16 13:09:38;;;;;;;2.85;1.40;;;;;;;13.64;72.92;99806.13;6801974;26;20105;-77
2024/04/16 13:12:42;;;;;;;3.17;2.20;;;;;;;14.12;70.68;99808.31;6807611;26;20006;-77
2024/04/16 13:15:46;;;;;;;3.78;2.00;;;;;;;14.75;71.23;99813.63;6807545;26;20014;-77
2024/04/16 13:18:49;;;;;;;1.98;1.70;;;;;;;14.81;68.30;99815.78;6800035;26;20013;-78
2024/04/16 13:21:52;;;;;;;3.30;2.22;;;;;;;15.08;67.86;99806.41;6823123;26;20042;-78
2024/04/16 13:24:55;;;;;;;2.70;2.25;;;;;;;15.21;63.64;99812.28;6828186;26;19998;-77
2024/04/16 13:27:56;;;;;;;4.15;2.15;;;;;;;15.40;64.90;99820.31;6832763;26;20414;-78
2024/04/16 13:31:00;;;;;;;2.65;2.10;;;;;;;15.47;62.20;99817.94;6854074;26;20006;-78
2024/04/16 13:34:00;;;;;;;3.05;2.28;;;;;;;15.63;62.87;99825.38;6835706;26;20008;-78
2024/04/16 13:37:06;;;;;;;3.30;2.20;;;;;;;15.76;65.02;99827.78;6818182;26;19998;-78
2024/04/16 13:40:07;;;;;;;4.40;2.08;;;;;;;15.18;65.05;99824.00;6842890;26;19998;-77
2024/04/16 13:43:10;;;;;;;4.80;2.65;;;;;;;14.31;69.64;99830.59;6823554;26;20067;-79
2024/04/16 13:46:14;;;;;;;3.63;2.50;;;;;;;13.96;71.19;99835.19;6803130;26;20014;-77
2024/04/16 13:49:14;;;;;;;2.78;2.10;;;;;;;13.29;74.79;99834.50;6809432;26;20041;-78
2024/04/16 13:52:20;;;;;;;3.88;2.10;;;;;;;13.09;79.43;99838.69;6849746;26;20443;-79
2024/04/16 13:55:20;;;;;;;5.82;2.47;;;;;;;12.92;84.67;99846.09;6865138;26;20260;-79
2024/04/16 13:58:24;;;;;;;2.95;1.77;;;;;;;12.80;84.71;99860.22;6864834;26;20030;-78
2024/04/16 14:01:25;;;;;;;2.13;1.48;;;;;;;12.54;83.09;99856.97;6872774;25;19993;-78
2024/04/16 14:04:28;;;;;;;2.35;1.30;;;;;;;12.18;84.38;99866.66;6874665;26;19993;-80
2024/04/16 14:07:34;;;;;;;3.13;1.60;;;;;;;12.23;85.00;99862.84;6874697;26;19990;-80
2024/04/16 14:10:34;;;;;;;5.50;1.95;;;;;;;12.82;86.30;99868.88;6875421;26;20021;-78
2024/04/16 14:13:37;;;;;;;3.03;1.67;;;;;;;13.35;87.65;99866.53;6874672;26;20001;-78
2024/04/16 14:16:38;;;;;;;2.22;1.63;;;;;;;13.50;76.79;99876.84;6874683;26;20033;-78
2024/04/16 14:19:41;;;;;;;4.15;2.08;;;;;;;13.01;74.10;99875.38;6874370;26;20291;-78
2024/04/16 14:22:44;;;;;;;5.22;3.30;;;;;;;12.80;69.43;99876.06;6874286;26;19993;-78